Time,TemperatureF,DewpointF,PressureIn,WindDirection,WindDirectionDegrees,WindSpeedMPH,WindSpeedGustMPH,Humidity,HourlyPrecipIn,Conditions,Clouds,dailyrainin,SoftwareType,DateUTC
2013-06-25 00:11:00,74.0,73.0,-100.00,NE,37,2.0,3.0,95,-99.99,,,-99.99,,2013-06-25 04:11:00,
2013-06-25 00:22:00,73.0,72.0,-100.00,NNE,33,2.0,3.0,95,-99.99,,,-99.99,,2013-06-25 04:22:00,
2013-06-25 00:34:00,73.0,72.0,-100.00,NNE,33,2.0,3.0,95,-99.99,,,-99.99,,2013-06-25 04:34:00,
2013-06-25 01:01:00,73.0,72.0,-100.00,NE,43,2.0,4.0,96,-99.99,,,-99.99,,2013-06-25 05:01:00,
2013-06-25 01:11:00,73.0,72.0,-100.00,NE,43,2.0,4.0,96,-99.99,,,-99.99,,2013-06-25 05:11:00,
2013-06-25 01:22:00,73.0,72.0,-100.00,ENE,68,2.0,5.0,96,-99.99,,,-99.99,,2013-06-25 05:22:00,
2013-06-25 01:44:00,73.0,72.0,-100.00,NE,38,3.0,4.0,96,-99.99,,,-99.99,,2013-06-25 05:44:00,
2013-06-25 01:52:00,73.0,72.0,-100.00,NE,38,3.0,4.0,96,-99.99,,,-99.99,,2013-06-25 05:52:00,
2013-06-25 02:01:00,73.0,72.0,-100.00,NE,45,3.0,5.0,95,-99.99,,,-99.99,,2013-06-25 06:01:00,
2013-06-25 02:11:00,73.0,72.0,-100.00,NE,45,3.0,5.0,95,-99.99,,,-99.99,,2013-06-25 06:11:00,
2013-06-25 02:43:00,73.0,71.0,30.19,NNE,26,2.0,4.0,95,-99.99,,,-99.99,,2013-06-25 06:43:00,
2013-06-25 02:52:00,72.0,70.0,30.19,NE,40,2.0,3.0,96,-99.99,,,-99.99,,2013-06-25 06:52:00,
2013-06-25 03:02:00,72.0,70.0,-100.00,NE,40,2.0,3.0,96,-99.99,,,-99.99,,2013-06-25 07:02:00,
2013-06-25 03:11:00,72.0,70.0,-100.00,NE,40,2.0,3.0,96,-99.99,,,-99.99,,2013-06-25 07:11:00,
2013-06-25 03:33:00,71.0,70.0,-100.00,NE,42,2.0,3.0,96,-99.99,,,-99.99,,2013-06-25 07:33:00,
2013-06-25 03:43:00,70.0,70.0,-100.00,NNE,30,2.0,3.0,96,-99.99,,,-99.99,,2013-06-25 07:43:00,
2013-06-25 03:52:00,70.0,70.0,-100.00,NNE,30,2.0,3.0,96,-99.99,,,-99.99,,2013-06-25 07:52:00,
2013-06-25 04:11:00,70.0,69.0,30.17,NNE,32,2.0,4.0,97,-99.99,,,-99.99,,2013-06-25 08:11:00,
2013-06-25 04:22:00,70.0,69.0,-100.00,NNE,32,2.0,4.0,97,-99.99,,,-99.99,,2013-06-25 08:22:00,
2013-06-25 04:30:00,71.0,71.0,-100.00,NE,47,2.0,4.0,97,-99.99,,,-99.99,,2013-06-25 08:30:00,
2013-06-25 04:34:00,70.0,70.0,-100.00,NNE,33,3.0,5.0,97,-99.99,,,-99.99,,2013-06-25 08:34:00,
2013-06-25 04:43:00,72.0,71.0,-100.00,NE,42,3.0,6.0,97,-99.99,,,-99.99,,2013-06-25 08:43:00,
2013-06-25 04:53:00,72.0,71.0,-100.00,NE,42,3.0,6.0,97,-99.99,,,-99.99,,2013-06-25 08:53:00,
2013-06-25 05:12:00,71.0,71.0,-100.00,NE,47,2.0,4.0,97,-99.99,,,-99.99,,2013-06-25 09:12:00,
2013-06-25 05:22:00,71.0,71.0,-100.00,NE,47,2.0,4.0,97,-99.99,,,-99.99,,2013-06-25 09:22:00,
2013-06-25 05:30:00,71.0,70.0,-100.00,NE,35,2.0,4.0,97,-99.99,,,-99.99,,2013-06-25 09:30:00,
2013-06-25 05:43:00,71.0,71.0,-100.00,ENE,61,2.0,5.0,97,-99.99,,,-99.99,,2013-06-25 09:43:00,
2013-06-25 05:53:00,71.0,71.0,-100.00,ENE,61,2.0,5.0,97,-99.99,,,-99.99,,2013-06-25 09:53:00,
2013-06-25 06:00:00,70.0,70.0,-100.00,NE,41,3.0,6.0,98,-99.99,,,-99.99,,2013-06-25 10:00:00,
2013-06-25 06:11:00,71.0,70.0,-100.00,NE,35,2.0,4.0,97,-99.99,,,-99.99,,2013-06-25 10:11:00,
2013-06-25 06:22:00,71.0,70.0,-100.00,NE,35,2.0,4.0,97,-99.99,,,-99.99,,2013-06-25 10:22:00,
2013-06-25 06:42:00,70.0,70.0,-100.00,NE,41,3.0,6.0,98,-99.99,,,-99.99,,2013-06-25 10:42:00,
2013-06-25 06:52:00,70.0,70.0,-100.00,NE,41,3.0,6.0,98,-99.99,,,-99.99,,2013-06-25 10:52:00,
2013-06-25 07:12:00,71.0,70.0,-100.00,NE,47,2.0,4.0,98,-99.99,,,-99.99,,2013-06-25 11:12:00,
2013-06-25 07:22:00,70.0,70.0,-100.00,NE,40,2.0,3.0,98,-99.99,,,-99.99,,2013-06-25 11:22:00,
2013-06-25 07:34:00,70.0,70.0,-100.00,NE,40,2.0,3.0,98,-99.99,,,-99.99,,2013-06-25 11:34:00,
2013-06-25 07:43:00,70.0,70.0,-100.00,NE,40,2.0,3.0,98,-99.99,,,-99.99,,2013-06-25 11:43:00,
2013-06-25 07:52:00,71.0,70.0,-100.00,ENE,62,2.0,3.0,98,-99.99,,,-99.99,,2013-06-25 11:52:00,
2013-06-25 08:00:00,75.0,73.0,30.15,NE,50,3.0,6.0,94,-99.99,,,-99.99,,2013-06-25 12:00:00,
2013-06-25 08:22:00,73.0,72.0,-100.00,ENE,63,2.0,5.0,97,-99.99,,,-99.99,,2013-06-25 12:22:00,
2013-06-25 08:33:00,73.0,72.0,-100.00,ENE,63,2.0,5.0,97,-99.99,,,-99.99,,2013-06-25 12:33:00,
2013-06-25 08:55:00,75.0,73.0,30.15,NE,50,3.0,6.0,94,-99.99,,,-99.99,,2013-06-25 12:55:00,
2013-06-25 10:23:00,84.0,75.0,30.15,East,86,4.0,8.0,75,-99.99,,,-99.99,,2013-06-25 14:23:00,
2013-06-25 10:34:00,84.0,75.0,30.15,East,86,4.0,8.0,75,-99.99,,,-99.99,,2013-06-25 14:34:00,
2013-06-25 11:02:00,85.0,74.0,30.16,ENE,69,6.0,12.0,69,-99.99,,,-99.99,,2013-06-25 15:02:00,
2013-06-25 11:11:00,85.0,74.0,30.16,ENE,69,6.0,12.0,69,-99.99,,,-99.99,,2013-06-25 15:11:00,
2013-06-25 11:44:00,85.0,73.0,30.18,ENE,64,6.0,13.0,67,-99.99,,,-99.99,,2013-06-25 15:44:00,
2013-06-25 12:00:00,89.0,75.0,30.17,East,92,5.0,12.0,61,-99.99,,,-99.99,,2013-06-25 16:00:00,
2013-06-25 12:03:00,87.0,74.0,30.18,East,94,6.0,11.0,64,-99.99,,,-99.99,,2013-06-25 16:03:00,
2013-06-25 12:12:00,87.0,74.0,30.18,East,94,6.0,11.0,64,-99.99,,,-99.99,,2013-06-25 16:12:00,
2013-06-25 12:23:00,87.0,74.0,30.18,East,94,6.0,11.0,64,-99.99,,,-99.99,,2013-06-25 16:23:00,
2013-06-25 12:44:00,88.0,75.0,30.17,East,89,6.0,13.0,63,-99.99,,,-99.99,,2013-06-25 16:44:00,
2013-06-25 12:52:00,89.0,75.0,30.17,East,92,5.0,12.0,61,-99.99,,,-99.99,,2013-06-25 16:52:00,
2013-06-25 13:00:00,91.0,74.0,30.16,East,90,6.0,13.0,58,-99.99,,,-99.99,,2013-06-25 17:00:00,
2013-06-25 13:11:00,88.0,74.0,-100.00,ENE,74,5.0,12.0,62,-99.99,,,-99.99,,2013-06-25 17:11:00,
2013-06-25 13:44:00,91.0,74.0,30.16,East,90,6.0,13.0,58,-99.99,,,-99.99,,2013-06-25 17:44:00,
2013-06-25 13:53:00,91.0,74.0,30.16,East,90,6.0,13.0,58,-99.99,,,-99.99,,2013-06-25 17:53:00,
2013-06-25 14:12:00,90.0,74.0,30.16,ENE,68,6.0,15.0,59,-99.99,,,-99.99,,2013-06-25 18:12:00,
2013-06-25 14:23:00,90.0,74.0,-100.00,ENE,68,6.0,15.0,59,-99.99,,,-99.99,,2013-06-25 18:23:00,
2013-06-25 14:44:00,91.0,74.0,-100.00,ESE,106,6.0,16.0,58,-99.99,,,-99.99,,2013-06-25 18:44:00,
2013-06-25 14:53:00,90.0,74.0,30.15,ENE,76,5.0,11.0,57,-99.99,,,-99.99,,2013-06-25 18:53:00,
2013-06-25 15:12:00,91.0,74.0,30.14,ENE,62,7.0,13.0,57,-99.99,,,-99.99,,2013-06-25 19:12:00,
2013-06-25 15:23:00,91.0,74.0,-100.00,ENE,62,7.0,13.0,57,-99.99,,,-99.99,,2013-06-25 19:23:00,
2013-06-25 15:44:00,91.0,74.0,30.13,East,89,4.0,9.0,56,-99.99,,,-99.99,,2013-06-25 19:44:00,
2013-06-25 16:00:00,84.0,75.0,-100.00,South,189,5.0,11.0,75,-99.99,,,-99.99,,2013-06-25 20:00:00,
2013-06-25 16:02:00,91.0,73.0,30.11,East,84,4.0,9.0,55,-99.99,,,-99.99,,2013-06-25 20:02:00,
2013-06-25 16:11:00,91.0,73.0,30.11,East,84,4.0,9.0,55,-99.99,,,-99.99,,2013-06-25 20:11:00,
2013-06-25 16:22:00,91.0,73.0,30.11,East,84,4.0,9.0,55,-99.99,,,-99.99,,2013-06-25 20:22:00,
2013-06-25 16:42:00,88.0,75.0,-100.00,South,189,5.0,12.0,65,-99.99,,,-99.99,,2013-06-25 20:42:00,
2013-06-25 16:52:00,84.0,75.0,-100.00,South,189,5.0,11.0,75,-99.99,,,-99.99,,2013-06-25 20:52:00,
2013-06-25 17:43:00,73.0,72.0,-100.00,SW,229,3.0,6.0,94,-99.99,,,-99.99,,2013-06-25 21:43:00,
2013-06-25 17:53:00,73.0,72.0,-100.00,SW,229,3.0,6.0,94,-99.99,,,-99.99,,2013-06-25 21:53:00,
2013-06-25 18:00:00,73.0,72.0,-100.00,SE,131,2.0,4.0,97,-99.99,,,-99.99,,2013-06-25 22:00:00,
2013-06-25 18:11:00,73.0,71.0,-100.00,NW,306,3.0,6.0,96,-99.99,,,-99.99,,2013-06-25 22:11:00,
2013-06-25 18:22:00,73.0,71.0,-100.00,NW,306,3.0,6.0,96,-99.99,,,-99.99,,2013-06-25 22:22:00,
2013-06-25 18:34:00,72.0,71.0,-100.00,SW,232,3.0,6.0,96,-99.99,,,-99.99,,2013-06-25 22:34:00,
2013-06-25 18:52:00,73.0,72.0,-100.00,SE,131,2.0,4.0,97,-99.99,,,-99.99,,2013-06-25 22:52:00,
2013-06-25 19:11:00,73.0,72.0,-100.00,SSW,200,3.0,5.0,97,-99.99,,,-99.99,,2013-06-25 23:11:00,
2013-06-25 19:34:00,73.0,72.0,-100.00,South,188,2.0,4.0,97,-99.99,,,-99.99,,2013-06-25 23:34:00,
2013-06-25 19:44:00,73.0,73.0,-100.00,ENE,78,2.0,3.0,97,-99.99,,,-99.99,,2013-06-25 23:44:00,
2013-06-25 19:52:00,73.0,73.0,-100.00,South,180,3.0,6.0,97,-99.99,,,-99.99,,2013-06-25 23:52:00,
2013-06-25 20:02:00,73.0,73.0,-100.00,South,180,3.0,6.0,97,-99.99,,,-99.99,,2013-06-26 00:02:00,
2013-06-25 20:11:00,73.0,73.0,-100.00,ENE,72,3.0,6.0,97,-99.99,,,-99.99,,2013-06-26 00:11:00,
2013-06-25 20:22:00,73.0,73.0,-100.00,ENE,72,3.0,6.0,97,-99.99,,,-99.99,,2013-06-26 00:22:00,
2013-06-25 20:42:00,73.0,72.0,-100.00,SW,221,3.0,7.0,97,-99.99,,,-99.99,,2013-06-26 00:42:00,
2013-06-25 20:53:00,73.0,72.0,-100.00,SW,221,3.0,7.0,97,-99.99,,,-99.99,,2013-06-26 00:53:00,
2013-06-25 21:01:00,73.0,73.0,-100.00,West,260,2.0,4.0,97,-99.99,,,-99.99,,2013-06-26 01:01:00,
2013-06-25 21:11:00,73.0,73.0,-100.00,West,260,2.0,4.0,97,-99.99,,,-99.99,,2013-06-26 01:11:00,
2013-06-25 21:33:00,73.0,73.0,-100.00,West,273,2.0,3.0,97,-99.99,,,-99.99,,2013-06-26 01:33:00,
2013-06-25 21:53:00,73.0,73.0,-100.00,NW,304,2.0,4.0,97,-99.99,,,-99.99,,2013-06-26 01:53:00,
2013-06-25 22:02:00,74.0,73.0,-100.00,NE,44,2.0,3.0,97,-99.99,,,-99.99,,2013-06-26 02:02:00,
2013-06-25 22:11:00,74.0,73.0,-100.00,NE,44,2.0,3.0,97,-99.99,,,-99.99,,2013-06-26 02:11:00,
2013-06-25 22:22:00,74.0,73.0,-100.00,NE,44,2.0,3.0,97,-99.99,,,-99.99,,2013-06-26 02:22:00,
2013-06-25 22:43:00,74.0,73.0,-100.00,East,95,3.0,7.0,97,-99.99,,,-99.99,,2013-06-26 02:43:00,
2013-06-25 23:00:00,74.0,73.0,-100.00,East,83,3.0,6.0,97,-99.99,,,-99.99,,2013-06-26 03:00:00,
2013-06-25 23:02:00,74.0,73.0,-100.00,SE,129,2.0,5.0,97,-99.99,,,-99.99,,2013-06-26 03:02:00,
2013-06-25 23:11:00,74.0,73.0,-100.00,SE,129,2.0,5.0,97,-99.99,,,-99.99,,2013-06-26 03:11:00,
2013-06-25 23:22:00,74.0,73.0,-100.00,SE,129,2.0,5.0,97,-99.99,,,-99.99,,2013-06-26 03:22:00,
2013-06-25 23:43:00,74.0,73.0,-100.00,East,83,3.0,6.0,97,-99.99,,,-99.99,,2013-06-26 03:43:00,
2013-06-25 23:52:00,74.0,73.0,-100.00,East,83,3.0,6.0,97,-99.99,,,-99.99,,2013-06-26 03:52:00,